sensor_id;sensor_type;location;lat;lon;timestamp;P1;durP1;ratioP1;P2;durP2;ratioP2
11287;SDS011;5700;50.996;7.044;2022-12-18T00:01:00;8.63;;;3.28;;
11287;SDS011;5700;50.996;7.044;2022-12-18T00:04:06;7.63;;;3.47;;
11287;SDS011;5700;50.996;7.044;2022-12-18T00:07:10;9.43;;;3.40;;
11287;SDS011;5700;50.996;7.044;2022-12-18T00:10:11;8.18;;;3.53;;
11287;SDS011;5700;50.996;7.044;2022-12-18T00:13:12;6.43;;;3.05;;
11287;SDS011;5700;50.996;7.044;2022-12-18T00:16:14;7.90;;;3.78;;
11287;SDS011;5700;50.996;7.044;2022-12-18T00:19:18;7.10;;;3.28;;
11287;SDS011;5700;50.996;7.044;2022-12-18T00:22:21;4.05;;;2.83;;
11287;SDS011;5700;50.996;7.044;2022-12-18T00:25:22;7.30;;;3.80;;
11287;SDS011;5700;50.996;7.044;2022-12-18T00:28:23;9.80;;;3.03;;
11287;SDS011;5700;50.996;7.044;2022-12-18T00:31:25;8.20;;;3.28;;
11287;SDS011;5700;50.996;7.044;2022-12-18T00:34:26;8.30;;;4.00;;
11287;SDS011;5700;50.996;7.044;2022-12-18T00:37:29;5.97;;;2.78;;
11287;SDS011;5700;50.996;7.044;2022-12-18T00:40:30;6.30;;;3.30;;
11287;SDS011;5700;50.996;7.044;2022-12-18T00:43:33;6.25;;;3.45;;
11287;SDS011;5700;50.996;7.044;2022-12-18T00:46:33;8.07;;;3.22;;
11287;SDS011;5700;50.996;7.044;2022-12-18T00:49:35;10.65;;;3.67;;
11287;SDS011;5700;50.996;7.044;2022-12-18T00:52:37;5.68;;;2.85;;
11287;SDS011;5700;50.996;7.044;2022-12-18T00:55:39;7.03;;;2.92;;
11287;SDS011;5700;50.996;7.044;2022-12-18T00:58:41;8.82;;;3.80;;
11287;SDS011;5700;50.996;7.044;2022-12-18T01:01:43;7.35;;;3.65;;
11287;SDS011;5700;50.996;7.044;2022-12-18T01:04:44;6.82;;;3.60;;
11287;SDS011;5700;50.996;7.044;2022-12-18T01:07:47;8.45;;;3.08;;
11287;SDS011;5700;50.996;7.044;2022-12-18T01:10:48;5.43;;;2.88;;
11287;SDS011;5700;50.996;7.044;2022-12-18T01:13:51;7.80;;;3.53;;
11287;SDS011;5700;50.996;7.044;2022-12-18T01:16:52;9.45;;;3.50;;
11287;SDS011;5700;50.996;7.044;2022-12-18T01:19:54;8.68;;;4.50;;
11287;SDS011;5700;50.996;7.044;2022-12-18T01:22:56;4.95;;;2.85;;
11287;SDS011;5700;50.996;7.044;2022-12-18T01:26:03;8.68;;;3.22;;
11287;SDS011;5700;50.996;7.044;2022-12-18T01:29:05;5.90;;;3.22;;
11287;SDS011;5700;50.996;7.044;2022-12-18T01:32:07;6.10;;;3.92;;
11287;SDS011;5700;50.996;7.044;2022-12-18T01:35:08;4.97;;;2.42;;
11287;SDS011;5700;50.996;7.044;2022-12-18T01:38:11;4.43;;;2.60;;
11287;SDS011;5700;50.996;7.044;2022-12-18T01:41:13;3.75;;;2.35;;
11287;SDS011;5700;50.996;7.044;2022-12-18T01:47:50;7.05;;;3.00;;
11287;SDS011;5700;50.996;7.044;2022-12-18T01:50:53;7.72;;;3.20;;
11287;SDS011;5700;50.996;7.044;2022-12-18T01:53:57;15.30;;;4.82;;
11287;SDS011;5700;50.996;7.044;2022-12-18T01:56:59;8.02;;;2.75;;
11287;SDS011;5700;50.996;7.044;2022-12-18T02:00:03;6.85;;;3.33;;
11287;SDS011;5700;50.996;7.044;2022-12-18T02:03:06;8.82;;;4.03;;
11287;SDS011;5700;50.996;7.044;2022-12-18T02:06:10;7.35;;;3.03;;
11287;SDS011;5700;50.996;7.044;2022-12-18T02:09:17;6.68;;;3.40;;
11287;SDS011;5700;50.996;7.044;2022-12-18T02:12:21;7.75;;;2.75;;
11287;SDS011;5700;50.996;7.044;2022-12-18T02:15:24;6.72;;;3.08;;
11287;SDS011;5700;50.996;7.044;2022-12-18T02:18:30;7.10;;;3.17;;
11287;SDS011;5700;50.996;7.044;2022-12-18T02:21:35;8.70;;;3.25;;
11287;SDS011;5700;50.996;7.044;2022-12-18T02:25:03;8.32;;;3.03;;
11287;SDS011;5700;50.996;7.044;2022-12-18T02:28:13;7.43;;;2.50;;
11287;SDS011;5700;50.996;7.044;2022-12-18T02:31:18;6.20;;;3.10;;
11287;SDS011;5700;50.996;7.044;2022-12-18T02:34:25;6.97;;;3.03;;
11287;SDS011;5700;50.996;7.044;2022-12-18T02:37:28;5.68;;;3.08;;
11287;SDS011;5700;50.996;7.044;2022-12-18T02:40:30;6.13;;;2.88;;
11287;SDS011;5700;50.996;7.044;2022-12-18T02:43:33;5.63;;;2.38;;
11287;SDS011;5700;50.996;7.044;2022-12-18T02:46:36;4.07;;;2.72;;
11287;SDS011;5700;50.996;7.044;2022-12-18T02:49:42;5.85;;;2.95;;
11287;SDS011;5700;50.996;7.044;2022-12-18T02:52:49;5.97;;;2.50;;
11287;SDS011;5700;50.996;7.044;2022-12-18T02:56:00;5.63;;;2.05;;
11287;SDS011;5700;50.996;7.044;2022-12-18T02:59:15;4.75;;;2.47;;
11287;SDS011;5700;50.996;7.044;2022-12-18T03:02:20;5.22;;;2.97;;
11287;SDS011;5700;50.996;7.044;2022-12-18T03:05:24;7.25;;;2.70;;
11287;SDS011;5700;50.996;7.044;2022-12-18T03:08:31;6.93;;;2.53;;
11287;SDS011;5700;50.996;7.044;2022-12-18T03:11:36;5.30;;;3.30;;
11287;SDS011;5700;50.996;7.044;2022-12-18T03:14:56;3.72;;;2.15;;
11287;SDS011;5700;50.996;7.044;2022-12-18T03:18:01;5.82;;;2.55;;
11287;SDS011;5700;50.996;7.044;2022-12-18T03:21:05;7.32;;;3.65;;
11287;SDS011;5700;50.996;7.044;2022-12-18T03:24:07;5.68;;;3.08;;
11287;SDS011;5700;50.996;7.044;2022-12-18T03:27:11;5.68;;;2.47;;
11287;SDS011;5700;50.996;7.044;2022-12-18T03:30:15;6.53;;;3.35;;
11287;SDS011;5700;50.996;7.044;2022-12-18T03:33:18;4.53;;;2.38;;
11287;SDS011;5700;50.996;7.044;2022-12-18T03:36:22;9.82;;;3.10;;
11287;SDS011;5700;50.996;7.044;2022-12-18T03:39:23;10.55;;;3.42;;
11287;SDS011;5700;50.996;7.044;2022-12-18T03:42:26;5.88;;;3.30;;
11287;SDS011;5700;50.996;7.044;2022-12-18T03:45:32;9.43;;;2.60;;
11287;SDS011;5700;50.996;7.044;2022-12-18T03:48:37;4.90;;;2.63;;
11287;SDS011;5700;50.996;7.044;2022-12-18T03:51:41;11.45;;;3.08;;
11287;SDS011;5700;50.996;7.044;2022-12-18T03:54:45;7.53;;;3.17;;
11287;SDS011;5700;50.996;7.044;2022-12-18T03:57:47;6.88;;;3.38;;
11287;SDS011;5700;50.996;7.044;2022-12-18T04:00:51;10.90;;;3.60;;
11287;SDS011;5700;50.996;7.044;2022-12-18T04:03:54;7.28;;;3.65;;
11287;SDS011;5700;50.996;7.044;2022-12-18T04:06:57;7.57;;;3.38;;
11287;SDS011;5700;50.996;7.044;2022-12-18T04:09:59;5.80;;;2.88;;
11287;SDS011;5700;50.996;7.044;2022-12-18T04:13:02;6.70;;;2.92;;
11287;SDS011;5700;50.996;7.044;2022-12-18T04:16:05;4.88;;;2.85;;
11287;SDS011;5700;50.996;7.044;2022-12-18T04:19:07;6.05;;;2.45;;
11287;SDS011;5700;50.996;7.044;2022-12-18T04:22:08;7.38;;;3.20;;
11287;SDS011;5700;50.996;7.044;2022-12-18T04:25:10;6.45;;;3.13;;
11287;SDS011;5700;50.996;7.044;2022-12-18T04:28:11;5.63;;;2.70;;
11287;SDS011;5700;50.996;7.044;2022-12-18T04:31:14;6.70;;;2.85;;
11287;SDS011;5700;50.996;7.044;2022-12-18T04:34:15;4.43;;;2.22;;
11287;SDS011;5700;50.996;7.044;2022-12-18T04:37:17;7.03;;;2.88;;
11287;SDS011;5700;50.996;7.044;2022-12-18T04:40:18;9.90;;;2.55;;
11287;SDS011;5700;50.996;7.044;2022-12-18T04:43:20;6.00;;;2.72;;
11287;SDS011;5700;50.996;7.044;2022-12-18T04:46:22;4.55;;;2.22;;
11287;SDS011;5700;50.996;7.044;2022-12-18T04:49:24;6.05;;;2.35;;
11287;SDS011;5700;50.996;7.044;2022-12-18T04:52:25;8.48;;;3.55;;
11287;SDS011;5700;50.996;7.044;2022-12-18T04:55:27;5.72;;;2.60;;
11287;SDS011;5700;50.996;7.044;2022-12-18T04:58:29;6.63;;;3.08;;
11287;SDS011;5700;50.996;7.044;2022-12-18T05:01:33;8.10;;;3.20;;
11287;SDS011;5700;50.996;7.044;2022-12-18T05:04:34;6.60;;;3.17;;
11287;SDS011;5700;50.996;7.044;2022-12-18T05:07:36;6.88;;;2.97;;
11287;SDS011;5700;50.996;7.044;2022-12-18T05:10:37;6.22;;;3.42;;
11287;SDS011;5700;50.996;7.044;2022-12-18T05:13:39;11.00;;;3.90;;
11287;SDS011;5700;50.996;7.044;2022-12-18T05:16:41;3.45;;;2.72;;
11287;SDS011;5700;50.996;7.044;2022-12-18T05:19:43;7.45;;;2.33;;
11287;SDS011;5700;50.996;7.044;2022-12-18T05:22:44;4.78;;;2.63;;
11287;SDS011;5700;50.996;7.044;2022-12-18T05:25:50;4.13;;;2.28;;
11287;SDS011;5700;50.996;7.044;2022-12-18T05:28:52;9.55;;;2.70;;
11287;SDS011;5700;50.996;7.044;2022-12-18T05:31:58;4.22;;;2.25;;
11287;SDS011;5700;50.996;7.044;2022-12-18T05:34:59;6.30;;;2.30;;
11287;SDS011;5700;50.996;7.044;2022-12-18T05:38:01;6.25;;;3.47;;
11287;SDS011;5700;50.996;7.044;2022-12-18T05:41:02;5.00;;;2.70;;
11287;SDS011;5700;50.996;7.044;2022-12-18T05:44:04;4.97;;;2.80;;
11287;SDS011;5700;50.996;7.044;2022-12-18T05:47:07;7.57;;;2.65;;
11287;SDS011;5700;50.996;7.044;2022-12-18T05:50:08;6.35;;;3.03;;
11287;SDS011;5700;50.996;7.044;2022-12-18T05:53:10;5.25;;;2.80;;
11287;SDS011;5700;50.996;7.044;2022-12-18T05:56:13;6.18;;;3.15;;
11287;SDS011;5700;50.996;7.044;2022-12-18T05:59:15;8.50;;;3.10;;
11287;SDS011;5700;50.996;7.044;2022-12-18T06:02:18;7.72;;;2.70;;
11287;SDS011;5700;50.996;7.044;2022-12-18T06:05:20;3.67;;;2.20;;
11287;SDS011;5700;50.996;7.044;2022-12-18T06:08:22;6.13;;;2.53;;
11287;SDS011;5700;50.996;7.044;2022-12-18T06:11:24;5.25;;;3.00;;
11287;SDS011;5700;50.996;7.044;2022-12-18T06:14:26;3.22;;;1.67;;
11287;SDS011;5700;50.996;7.044;2022-12-18T06:17:29;9.48;;;3.00;;
11287;SDS011;5700;50.996;7.044;2022-12-18T06:20:31;5.07;;;2.28;;
11287;SDS011;5700;50.996;7.044;2022-12-18T06:23:32;9.35;;;3.13;;
11287;SDS011;5700;50.996;7.044;2022-12-18T06:26:36;5.95;;;2.95;;
11287;SDS011;5700;50.996;7.044;2022-12-18T06:29:38;3.97;;;1.95;;
11287;SDS011;5700;50.996;7.044;2022-12-18T06:32:40;5.15;;;2.90;;
11287;SDS011;5700;50.996;7.044;2022-12-18T06:35:42;5.43;;;2.30;;
11287;SDS011;5700;50.996;7.044;2022-12-18T06:38:43;4.50;;;2.17;;
11287;SDS011;5700;50.996;7.044;2022-12-18T06:41:45;6.95;;;3.08;;
11287;SDS011;5700;50.996;7.044;2022-12-18T06:44:46;5.60;;;2.58;;
11287;SDS011;5700;50.996;7.044;2022-12-18T06:47:49;5.35;;;2.15;;
11287;SDS011;5700;50.996;7.044;2022-12-18T06:50:50;12.00;;;3.40;;
11287;SDS011;5700;50.996;7.044;2022-12-18T06:53:52;3.97;;;2.58;;
11287;SDS011;5700;50.996;7.044;2022-12-18T06:56:56;7.55;;;3.60;;
11287;SDS011;5700;50.996;7.044;2022-12-18T06:59:57;11.82;;;4.60;;
11287;SDS011;5700;50.996;7.044;2022-12-18T07:03:00;5.88;;;2.28;;
11287;SDS011;5700;50.996;7.044;2022-12-18T07:06:02;4.68;;;2.85;;
11287;SDS011;5700;50.996;7.044;2022-12-18T07:09:04;5.80;;;3.17;;
11287;SDS011;5700;50.996;7.044;2022-12-18T07:12:05;4.88;;;2.13;;
11287;SDS011;5700;50.996;7.044;2022-12-18T07:15:08;6.78;;;2.92;;
11287;SDS011;5700;50.996;7.044;2022-12-18T07:18:11;7.13;;;2.35;;
11287;SDS011;5700;50.996;7.044;2022-12-18T07:21:13;6.45;;;2.22;;
11287;SDS011;5700;50.996;7.044;2022-12-18T07:24:17;6.80;;;3.35;;
11287;SDS011;5700;50.996;7.044;2022-12-18T07:27:18;6.57;;;2.53;;
11287;SDS011;5700;50.996;7.044;2022-12-18T07:30:20;6.85;;;2.85;;
11287;SDS011;5700;50.996;7.044;2022-12-18T07:33:22;4.95;;;3.00;;
11287;SDS011;5700;50.996;7.044;2022-12-18T07:36:24;6.97;;;2.45;;
11287;SDS011;5700;50.996;7.044;2022-12-18T07:39:25;4.95;;;2.20;;
11287;SDS011;5700;50.996;7.044;2022-12-18T07:42:26;4.95;;;2.28;;
11287;SDS011;5700;50.996;7.044;2022-12-18T07:45:31;4.63;;;2.55;;
11287;SDS011;5700;50.996;7.044;2022-12-18T07:48:34;7.70;;;3.00;;
11287;SDS011;5700;50.996;7.044;2022-12-18T07:51:35;9.13;;;4.53;;
11287;SDS011;5700;50.996;7.044;2022-12-18T07:54:36;16.60;;;6.70;;
11287;SDS011;5700;50.996;7.044;2022-12-18T07:57:38;11.13;;;3.60;;
11287;SDS011;5700;50.996;7.044;2022-12-18T08:00:39;10.35;;;4.75;;
11287;SDS011;5700;50.996;7.044;2022-12-18T08:03:42;9.10;;;3.75;;
11287;SDS011;5700;50.996;7.044;2022-12-18T08:06:43;6.97;;;2.97;;
11287;SDS011;5700;50.996;7.044;2022-12-18T08:09:45;8.77;;;3.13;;
11287;SDS011;5700;50.996;7.044;2022-12-18T08:12:48;8.68;;;3.30;;
11287;SDS011;5700;50.996;7.044;2022-12-18T08:15:58;4.45;;;2.20;;
11287;SDS011;5700;50.996;7.044;2022-12-18T08:19:01;8.60;;;3.72;;
11287;SDS011;5700;50.996;7.044;2022-12-18T08:22:02;5.65;;;2.88;;
11287;SDS011;5700;50.996;7.044;2022-12-18T08:25:04;10.32;;;4.80;;
11287;SDS011;5700;50.996;7.044;2022-12-18T08:28:06;6.30;;;3.50;;
11287;SDS011;5700;50.996;7.044;2022-12-18T08:31:08;11.13;;;4.00;;
11287;SDS011;5700;50.996;7.044;2022-12-18T08:34:11;10.43;;;4.65;;
11287;SDS011;5700;50.996;7.044;2022-12-18T08:37:12;8.00;;;3.28;;
11287;SDS011;5700;50.996;7.044;2022-12-18T08:40:14;6.50;;;3.88;;
11287;SDS011;5700;50.996;7.044;2022-12-18T08:43:15;11.40;;;4.32;;
11287;SDS011;5700;50.996;7.044;2022-12-18T08:46:32;14.38;;;4.78;;
11287;SDS011;5700;50.996;7.044;2022-12-18T08:49:36;8.27;;;4.70;;
11287;SDS011;5700;50.996;7.044;2022-12-18T08:52:38;11.60;;;5.80;;
11287;SDS011;5700;50.996;7.044;2022-12-18T08:55:39;12.27;;;5.47;;
11287;SDS011;5700;50.996;7.044;2022-12-18T08:58:41;9.48;;;4.40;;
11287;SDS011;5700;50.996;7.044;2022-12-18T09:01:43;7.78;;;4.05;;
11287;SDS011;5700;50.996;7.044;2022-12-18T09:04:47;9.07;;;4.22;;
11287;SDS011;5700;50.996;7.044;2022-12-18T09:07:48;11.10;;;4.88;;
11287;SDS011;5700;50.996;7.044;2022-12-18T09:10:50;11.68;;;5.63;;
11287;SDS011;5700;50.996;7.044;2022-12-18T09:13:52;10.38;;;5.85;;
11287;SDS011;5700;50.996;7.044;2022-12-18T09:16:54;11.63;;;5.60;;
11287;SDS011;5700;50.996;7.044;2022-12-18T09:19:57;11.75;;;5.28;;
11287;SDS011;5700;50.996;7.044;2022-12-18T09:22:58;13.57;;;5.70;;
11287;SDS011;5700;50.996;7.044;2022-12-18T09:26:00;13.80;;;5.43;;
11287;SDS011;5700;50.996;7.044;2022-12-18T09:29:01;13.60;;;6.22;;
11287;SDS011;5700;50.996;7.044;2022-12-18T09:32:03;14.23;;;6.82;;
11287;SDS011;5700;50.996;7.044;2022-12-18T09:35:06;12.75;;;5.15;;
11287;SDS011;5700;50.996;7.044;2022-12-18T09:38:08;12.45;;;5.55;;
11287;SDS011;5700;50.996;7.044;2022-12-18T09:41:18;13.05;;;4.80;;
11287;SDS011;5700;50.996;7.044;2022-12-18T09:44:29;14.65;;;5.25;;
11287;SDS011;5700;50.996;7.044;2022-12-18T09:47:33;11.77;;;6.30;;
11287;SDS011;5700;50.996;7.044;2022-12-18T09:50:38;15.63;;;6.32;;
11287;SDS011;5700;50.996;7.044;2022-12-18T09:53:41;10.55;;;5.72;;
11287;SDS011;5700;50.996;7.044;2022-12-18T09:56:45;12.35;;;5.50;;
11287;SDS011;5700;50.996;7.044;2022-12-18T09:59:48;13.40;;;5.00;;
11287;SDS011;5700;50.996;7.044;2022-12-18T10:02:53;13.27;;;6.18;;
11287;SDS011;5700;50.996;7.044;2022-12-18T10:06:02;15.65;;;7.22;;
11287;SDS011;5700;50.996;7.044;2022-12-18T10:09:08;14.15;;;6.13;;
11287;SDS011;5700;50.996;7.044;2022-12-18T10:12:16;14.27;;;6.00;;
11287;SDS011;5700;50.996;7.044;2022-12-18T10:15:23;11.48;;;5.30;;
11287;SDS011;5700;50.996;7.044;2022-12-18T10:18:30;14.02;;;6.28;;
11287;SDS011;5700;50.996;7.044;2022-12-18T10:21:41;15.55;;;6.25;;
11287;SDS011;5700;50.996;7.044;2022-12-18T10:24:47;13.43;;;5.95;;
11287;SDS011;5700;50.996;7.044;2022-12-18T10:27:56;10.20;;;5.15;;
11287;SDS011;5700;50.996;7.044;2022-12-18T10:30:59;10.32;;;5.07;;
11287;SDS011;5700;50.996;7.044;2022-12-18T10:34:00;12.77;;;5.20;;
11287;SDS011;5700;50.996;7.044;2022-12-18T10:37:06;11.00;;;6.03;;
11287;SDS011;5700;50.996;7.044;2022-12-18T10:40:13;13.15;;;5.55;;
11287;SDS011;5700;50.996;7.044;2022-12-18T10:43:19;13.27;;;5.43;;
11287;SDS011;5700;50.996;7.044;2022-12-18T10:46:22;14.80;;;5.88;;
11287;SDS011;5700;50.996;7.044;2022-12-18T10:49:25;18.77;;;6.35;;
11287;SDS011;5700;50.996;7.044;2022-12-18T10:52:29;12.25;;;5.43;;
11287;SDS011;5700;50.996;7.044;2022-12-18T10:55:31;12.15;;;4.70;;
11287;SDS011;5700;50.996;7.044;2022-12-18T10:58:34;11.30;;;5.70;;
11287;SDS011;5700;50.996;7.044;2022-12-18T11:04:54;9.52;;;4.75;;
11287;SDS011;5700;50.996;7.044;2022-12-18T11:07:57;11.32;;;4.93;;
11287;SDS011;5700;50.996;7.044;2022-12-18T11:10:59;14.23;;;5.47;;
11287;SDS011;5700;50.996;7.044;2022-12-18T11:14:02;10.90;;;4.85;;
11287;SDS011;5700;50.996;7.044;2022-12-18T11:17:05;11.68;;;5.30;;
11287;SDS011;5700;50.996;7.044;2022-12-18T11:20:23;10.32;;;5.25;;
11287;SDS011;5700;50.996;7.044;2022-12-18T11:23:29;9.32;;;4.38;;
11287;SDS011;5700;50.996;7.044;2022-12-18T11:26:33;14.05;;;5.20;;
11287;SDS011;5700;50.996;7.044;2022-12-18T11:29:36;19.15;;;7.00;;
11287;SDS011;5700;50.996;7.044;2022-12-18T11:32:38;9.82;;;5.43;;
11287;SDS011;5700;50.996;7.044;2022-12-18T11:35:42;11.18;;;5.05;;
11287;SDS011;5700;50.996;7.044;2022-12-18T11:38:47;13.27;;;5.70;;
11287;SDS011;5700;50.996;7.044;2022-12-18T11:41:52;9.75;;;5.35;;
11287;SDS011;5700;50.996;7.044;2022-12-18T11:45:18;15.57;;;6.00;;
11287;SDS011;5700;50.996;7.044;2022-12-18T11:48:25;10.18;;;5.60;;
11287;SDS011;5700;50.996;7.044;2022-12-18T11:51:31;14.80;;;6.07;;
11287;SDS011;5700;50.996;7.044;2022-12-18T11:54:36;14.15;;;5.05;;
11287;SDS011;5700;50.996;7.044;2022-12-18T11:57:39;10.07;;;4.72;;
11287;SDS011;5700;50.996;7.044;2022-12-18T12:00:47;11.18;;;5.65;;
11287;SDS011;5700;50.996;7.044;2022-12-18T12:04:00;12.98;;;6.50;;
11287;SDS011;5700;50.996;7.044;2022-12-18T12:07:21;13.57;;;5.55;;
11287;SDS011;5700;50.996;7.044;2022-12-18T12:10:32;15.90;;;6.63;;
11287;SDS011;5700;50.996;7.044;2022-12-18T12:13:42;14.52;;;6.05;;
11287;SDS011;5700;50.996;7.044;2022-12-18T12:16:48;9.35;;;4.95;;
11287;SDS011;5700;50.996;7.044;2022-12-18T12:19:53;13.75;;;6.03;;
11287;SDS011;5700;50.996;7.044;2022-12-18T12:23:01;13.50;;;5.68;;
11287;SDS011;5700;50.996;7.044;2022-12-18T12:26:07;11.35;;;5.55;;
11287;SDS011;5700;50.996;7.044;2022-12-18T12:29:19;8.27;;;4.75;;
11287;SDS011;5700;50.996;7.044;2022-12-18T12:32:31;12.82;;;6.03;;
11287;SDS011;5700;50.996;7.044;2022-12-18T12:35:42;11.70;;;6.45;;
11287;SDS011;5700;50.996;7.044;2022-12-18T12:38:48;15.00;;;6.95;;
11287;SDS011;5700;50.996;7.044;2022-12-18T12:41:54;13.63;;;6.50;;
11287;SDS011;5700;50.996;7.044;2022-12-18T12:45:13;14.48;;;6.80;;
11287;SDS011;5700;50.996;7.044;2022-12-18T12:48:23;15.23;;;7.03;;
11287;SDS011;5700;50.996;7.044;2022-12-18T12:51:34;16.02;;;7.13;;
11287;SDS011;5700;50.996;7.044;2022-12-18T12:54:36;14.35;;;6.28;;
11287;SDS011;5700;50.996;7.044;2022-12-18T12:57:40;15.55;;;7.35;;
11287;SDS011;5700;50.996;7.044;2022-12-18T13:00:45;14.20;;;6.90;;
11287;SDS011;5700;50.996;7.044;2022-12-18T13:03:54;14.02;;;6.63;;
11287;SDS011;5700;50.996;7.044;2022-12-18T13:06:59;15.95;;;6.07;;
11287;SDS011;5700;50.996;7.044;2022-12-18T13:13:28;17.10;;;6.68;;
11287;SDS011;5700;50.996;7.044;2022-12-18T13:16:49;15.75;;;6.35;;
11287;SDS011;5700;50.996;7.044;2022-12-18T13:19:50;12.27;;;6.85;;
11287;SDS011;5700;50.996;7.044;2022-12-18T13:22:57;16.73;;;7.35;;
11287;SDS011;5700;50.996;7.044;2022-12-18T13:25:58;11.93;;;5.63;;
11287;SDS011;5700;50.996;7.044;2022-12-18T13:29:02;13.18;;;6.53;;
11287;SDS011;5700;50.996;7.044;2022-12-18T13:32:10;13.15;;;6.45;;
11287;SDS011;5700;50.996;7.044;2022-12-18T13:38:38;15.77;;;7.45;;
11287;SDS011;5700;50.996;7.044;2022-12-18T13:41:41;17.52;;;7.13;;
11287;SDS011;5700;50.996;7.044;2022-12-18T13:44:44;15.93;;;6.93;;
11287;SDS011;5700;50.996;7.044;2022-12-18T13:47:45;16.23;;;7.65;;
11287;SDS011;5700;50.996;7.044;2022-12-18T13:50:48;14.98;;;6.72;;
11287;SDS011;5700;50.996;7.044;2022-12-18T13:53:53;15.20;;;7.60;;
11287;SDS011;5700;50.996;7.044;2022-12-18T13:56:55;15.07;;;7.00;;
11287;SDS011;5700;50.996;7.044;2022-12-18T13:59:58;13.88;;;6.63;;
11287;SDS011;5700;50.996;7.044;2022-12-18T14:03:19;15.38;;;6.30;;
11287;SDS011;5700;50.996;7.044;2022-12-18T14:06:22;17.77;;;7.65;;
11287;SDS011;5700;50.996;7.044;2022-12-18T14:09:25;15.38;;;8.00;;
11287;SDS011;5700;50.996;7.044;2022-12-18T14:12:28;17.35;;;8.07;;
11287;SDS011;5700;50.996;7.044;2022-12-18T14:15:47;18.70;;;8.77;;
11287;SDS011;5700;50.996;7.044;2022-12-18T14:18:50;17.65;;;8.02;;
11287;SDS011;5700;50.996;7.044;2022-12-18T14:21:54;13.63;;;7.40;;
11287;SDS011;5700;50.996;7.044;2022-12-18T14:28:17;15.82;;;7.47;;
11287;SDS011;5700;50.996;7.044;2022-12-18T14:31:20;15.82;;;7.28;;
11287;SDS011;5700;50.996;7.044;2022-12-18T14:34:25;14.35;;;7.28;;
11287;SDS011;5700;50.996;7.044;2022-12-18T14:37:27;16.80;;;7.75;;
11287;SDS011;5700;50.996;7.044;2022-12-18T14:40:28;14.18;;;7.50;;
11287;SDS011;5700;50.996;7.044;2022-12-18T14:43:31;15.88;;;7.13;;
11287;SDS011;5700;50.996;7.044;2022-12-18T14:46:35;17.48;;;6.95;;
11287;SDS011;5700;50.996;7.044;2022-12-18T14:49:38;16.52;;;6.70;;
11287;SDS011;5700;50.996;7.044;2022-12-18T14:52:43;15.95;;;7.63;;
11287;SDS011;5700;50.996;7.044;2022-12-18T14:55:44;16.83;;;7.78;;
11287;SDS011;5700;50.996;7.044;2022-12-18T14:58:47;21.75;;;7.57;;
11287;SDS011;5700;50.996;7.044;2022-12-18T15:01:55;17.80;;;7.93;;
11287;SDS011;5700;50.996;7.044;2022-12-18T15:05:00;17.60;;;7.68;;
11287;SDS011;5700;50.996;7.044;2022-12-18T15:08:02;18.67;;;7.47;;
11287;SDS011;5700;50.996;7.044;2022-12-18T15:14:38;13.65;;;7.47;;
11287;SDS011;5700;50.996;7.044;2022-12-18T15:17:42;18.60;;;8.07;;
11287;SDS011;5700;50.996;7.044;2022-12-18T15:20:44;17.13;;;8.90;;
11287;SDS011;5700;50.996;7.044;2022-12-18T15:23:48;17.20;;;8.10;;
11287;SDS011;5700;50.996;7.044;2022-12-18T15:26:51;21.13;;;8.23;;
11287;SDS011;5700;50.996;7.044;2022-12-18T15:30:00;18.70;;;8.02;;
11287;SDS011;5700;50.996;7.044;2022-12-18T15:33:22;21.48;;;9.75;;
11287;SDS011;5700;50.996;7.044;2022-12-18T15:36:24;17.83;;;8.60;;
11287;SDS011;5700;50.996;7.044;2022-12-18T15:39:30;17.10;;;6.85;;
11287;SDS011;5700;50.996;7.044;2022-12-18T15:42:31;16.63;;;7.90;;
11287;SDS011;5700;50.996;7.044;2022-12-18T15:45:47;17.40;;;8.32;;
11287;SDS011;5700;50.996;7.044;2022-12-18T15:48:50;18.13;;;8.50;;
11287;SDS011;5700;50.996;7.044;2022-12-18T15:51:53;17.80;;;8.60;;
11287;SDS011;5700;50.996;7.044;2022-12-18T15:54:56;16.67;;;8.70;;
11287;SDS011;5700;50.996;7.044;2022-12-18T15:58:12;19.92;;;8.07;;
11287;SDS011;5700;50.996;7.044;2022-12-18T16:01:13;21.73;;;9.60;;
11287;SDS011;5700;50.996;7.044;2022-12-18T16:04:27;20.42;;;9.70;;
11287;SDS011;5700;50.996;7.044;2022-12-18T16:07:29;15.73;;;8.30;;
11287;SDS011;5700;50.996;7.044;2022-12-18T16:10:30;23.17;;;9.20;;
11287;SDS011;5700;50.996;7.044;2022-12-18T16:13:32;17.92;;;8.75;;
11287;SDS011;5700;50.996;7.044;2022-12-18T16:16:33;24.58;;;9.68;;
11287;SDS011;5700;50.996;7.044;2022-12-18T16:19:36;19.13;;;8.50;;
11287;SDS011;5700;50.996;7.044;2022-12-18T16:22:37;24.45;;;10.65;;
11287;SDS011;5700;50.996;7.044;2022-12-18T16:25:39;24.55;;;9.75;;
11287;SDS011;5700;50.996;7.044;2022-12-18T16:28:40;22.98;;;8.82;;
11287;SDS011;5700;50.996;7.044;2022-12-18T16:31:41;19.75;;;9.57;;
11287;SDS011;5700;50.996;7.044;2022-12-18T16:34:44;18.55;;;7.80;;
11287;SDS011;5700;50.996;7.044;2022-12-18T16:37:46;19.85;;;9.02;;
11287;SDS011;5700;50.996;7.044;2022-12-18T16:40:48;19.63;;;9.48;;
11287;SDS011;5700;50.996;7.044;2022-12-18T16:44:03;18.25;;;9.15;;
11287;SDS011;5700;50.996;7.044;2022-12-18T16:47:05;20.63;;;9.05;;
11287;SDS011;5700;50.996;7.044;2022-12-18T16:50:08;21.52;;;9.43;;
11287;SDS011;5700;50.996;7.044;2022-12-18T16:53:10;18.98;;;9.40;;
11287;SDS011;5700;50.996;7.044;2022-12-18T16:56:11;20.05;;;9.10;;
11287;SDS011;5700;50.996;7.044;2022-12-18T16:59:12;22.75;;;9.30;;
11287;SDS011;5700;50.996;7.044;2022-12-18T17:02:15;16.92;;;8.73;;
11287;SDS011;5700;50.996;7.044;2022-12-18T17:05:19;19.85;;;9.15;;
11287;SDS011;5700;50.996;7.044;2022-12-18T17:08:20;22.73;;;9.55;;
11287;SDS011;5700;50.996;7.044;2022-12-18T17:11:22;20.55;;;10.27;;
11287;SDS011;5700;50.996;7.044;2022-12-18T17:14:24;23.33;;;10.13;;
11287;SDS011;5700;50.996;7.044;2022-12-18T17:17:26;23.33;;;10.77;;
11287;SDS011;5700;50.996;7.044;2022-12-18T17:20:28;24.48;;;10.13;;
11287;SDS011;5700;50.996;7.044;2022-12-18T17:23:30;22.95;;;9.27;;
11287;SDS011;5700;50.996;7.044;2022-12-18T17:26:31;21.67;;;9.30;;
11287;SDS011;5700;50.996;7.044;2022-12-18T17:29:33;22.63;;;10.57;;
11287;SDS011;5700;50.996;7.044;2022-12-18T17:32:34;23.73;;;9.98;;
11287;SDS011;5700;50.996;7.044;2022-12-18T17:35:37;21.05;;;9.52;;
11287;SDS011;5700;50.996;7.044;2022-12-18T17:38:41;23.42;;;9.68;;
11287;SDS011;5700;50.996;7.044;2022-12-18T17:41:43;31.00;;;10.82;;
11287;SDS011;5700;50.996;7.044;2022-12-18T17:44:45;25.52;;;10.48;;
11287;SDS011;5700;50.996;7.044;2022-12-18T17:47:47;23.15;;;9.05;;
11287;SDS011;5700;50.996;7.044;2022-12-18T17:50:49;25.05;;;11.32;;
11287;SDS011;5700;50.996;7.044;2022-12-18T17:53:51;21.77;;;11.07;;
11287;SDS011;5700;50.996;7.044;2022-12-18T17:56:52;24.27;;;9.93;;
11287;SDS011;5700;50.996;7.044;2022-12-18T17:59:54;23.95;;;10.23;;
11287;SDS011;5700;50.996;7.044;2022-12-18T18:02:55;23.95;;;9.45;;
11287;SDS011;5700;50.996;7.044;2022-12-18T18:05:59;23.90;;;10.48;;
11287;SDS011;5700;50.996;7.044;2022-12-18T18:09:01;27.73;;;11.32;;
11287;SDS011;5700;50.996;7.044;2022-12-18T18:12:02;20.80;;;9.75;;
11287;SDS011;5700;50.996;7.044;2022-12-18T18:15:18;21.08;;;10.55;;
11287;SDS011;5700;50.996;7.044;2022-12-18T18:18:19;24.83;;;10.80;;
11287;SDS011;5700;50.996;7.044;2022-12-18T18:21:22;25.02;;;10.88;;
11287;SDS011;5700;50.996;7.044;2022-12-18T18:24:23;27.30;;;11.05;;
11287;SDS011;5700;50.996;7.044;2022-12-18T18:27:25;23.35;;;10.90;;
11287;SDS011;5700;50.996;7.044;2022-12-18T18:30:27;25.55;;;11.05;;
11287;SDS011;5700;50.996;7.044;2022-12-18T18:33:29;22.98;;;9.98;;
11287;SDS011;5700;50.996;7.044;2022-12-18T18:36:31;20.30;;;8.88;;
11287;SDS011;5700;50.996;7.044;2022-12-18T18:39:33;24.27;;;10.18;;
11287;SDS011;5700;50.996;7.044;2022-12-18T18:42:34;23.10;;;9.43;;
11287;SDS011;5700;50.996;7.044;2022-12-18T18:45:36;21.95;;;10.48;;
11287;SDS011;5700;50.996;7.044;2022-12-18T18:48:37;25.48;;;10.57;;
11287;SDS011;5700;50.996;7.044;2022-12-18T18:51:40;23.02;;;9.23;;
11287;SDS011;5700;50.996;7.044;2022-12-18T18:54:42;26.15;;;10.13;;